createdAt,value
2019-04-21T00:02:05.561Z,12.90
2019-04-21T00:04:48.438Z,12.80
2019-04-21T00:07:26.491Z,12.80
2019-04-21T00:10:02.607Z,12.90
2019-04-21T00:12:22.601Z,12.90
2019-04-21T00:14:49.457Z,12.90
2019-04-21T00:17:14.091Z,12.70
2019-04-21T00:19:40.867Z,12.80
2019-04-21T00:22:23.758Z,12.80
2019-04-21T00:24:59.538Z,12.80
2019-04-21T00:27:28.138Z,12.80
2019-04-21T00:30:04.637Z,12.80
2019-04-21T00:32:25.439Z,12.70
2019-04-21T00:34:50.984Z,12.70
2019-04-21T00:37:25.921Z,12.60
2019-04-21T00:40:03.713Z,12.60
2019-04-21T00:42:34.213Z,12.60
2019-04-21T00:45:01.889Z,12.50
2019-04-21T00:47:34.060Z,12.40
2019-04-21T00:50:05.227Z,12.30
2019-04-21T00:52:51.309Z,12.30
2019-04-21T00:55:33.905Z,12.30
2019-04-21T00:57:58.494Z,12.20
2019-04-21T01:00:44.520Z,12.20
2019-04-21T01:02:57.987Z,12.00
2019-04-21T01:05:26.960Z,11.90
2019-04-21T01:07:50.343Z,11.80
2019-04-21T01:10:20.800Z,11.70
2019-04-21T01:13:04.037Z,11.70
2019-04-21T01:15:37.123Z,11.60
2019-04-21T01:18:01.466Z,11.50
2019-04-21T01:20:16.993Z,11.50
2019-04-21T01:22:40.146Z,11.40
2019-04-21T01:25:17.519Z,11.40
2019-04-21T01:27:53.779Z,11.30
2019-04-21T01:30:31.840Z,11.30
2019-04-21T01:33:06.362Z,11.20
2019-04-21T01:35:34.320Z,11.10
2019-04-21T01:38:01.903Z,11.00
2019-04-21T01:40:38.333Z,10.90
2019-04-21T01:43:03.858Z,10.70
2019-04-21T01:45:35.547Z,10.60
2019-04-21T01:48:05.165Z,10.40
2019-04-21T01:50:30.057Z,10.30
2019-04-21T01:53:14.701Z,10.20
2019-04-21T01:55:52.811Z,10.10
2019-04-21T01:58:11.351Z,10.00
2019-04-21T02:00:51.809Z,10.00
2019-04-21T02:03:45.343Z,9.80
2019-04-21T02:05:58.652Z,9.70
2019-04-21T02:08:21.721Z,9.70
2019-04-21T02:11:00.973Z,9.60
2019-04-21T02:13:24.688Z,9.60
2019-04-21T02:16:00.869Z,9.50
2019-04-21T02:18:29.203Z,9.40
2019-04-21T02:20:44.516Z,9.40
2019-04-21T02:23:39.889Z,9.40
2019-04-21T02:25:57.345Z,9.40
2019-04-21T02:28:36.814Z,9.40
2019-04-21T02:31:14.273Z,9.40
2019-04-21T02:33:45.850Z,9.50
2019-04-21T02:36:24.691Z,9.50
2019-04-21T02:38:50.252Z,9.40
2019-04-21T02:41:05.879Z,9.40
2019-04-21T02:43:45.661Z,9.20
2019-04-21T02:46:17.098Z,9.10
2019-04-21T02:48:45.028Z,9.00
2019-04-21T02:51:09.810Z,9.00
2019-04-21T02:54:07.982Z,8.90
2019-04-21T02:56:22.319Z,9.00
2019-04-21T02:58:53.089Z,8.90
2019-04-21T03:01:38.279Z,8.90
2019-04-21T03:06:51.744Z,8.80
2019-04-21T03:09:17.600Z,8.70
2019-04-21T03:11:49.000Z,8.70
2019-04-21T03:14:28.338Z,8.60
2019-04-21T03:16:43.442Z,8.60
2019-04-21T03:21:48.644Z,8.50
2019-04-21T03:24:18.492Z,8.40
2019-04-21T03:27:01.913Z,8.30
2019-04-21T03:29:29.560Z,8.30
2019-04-21T03:32:14.426Z,8.20
2019-04-21T03:39:20.210Z,8.10
2019-04-21T03:42:04.471Z,8.10
2019-04-21T03:44:26.710Z,8.20
2019-04-21T03:47:11.060Z,8.20
2019-04-21T03:49:27.843Z,8.10
2019-04-21T03:51:59.353Z,8.10
2019-04-21T03:54:30.854Z,8.00
2019-04-21T03:57:10.825Z,7.90
2019-04-21T03:59:19.735Z,7.90
2019-04-21T04:02:06.028Z,7.90
2019-04-21T04:04:52.801Z,7.80
2019-04-21T04:07:50.203Z,7.80
2019-04-21T04:12:44.367Z,7.60
2019-04-21T04:15:13.255Z,7.60
2019-04-21T04:17:43.736Z,7.60
2019-04-21T04:20:11.827Z,7.60
2019-04-21T04:25:09.401Z,7.50
2019-04-21T04:35:21.545Z,7.40
2019-04-21T04:37:45.074Z,7.40
2019-04-21T04:42:56.513Z,7.40
2019-04-21T04:47:59.936Z,7.40
2019-04-21T04:50:35.900Z,7.30
2019-04-21T04:53:01.958Z,7.30
2019-04-21T04:55:31.951Z,7.20
2019-04-21T04:57:59.021Z,7.20
2019-04-21T05:02:56.382Z,7.20
2019-04-21T05:05:26.779Z,7.30
2019-04-21T05:08:07.650Z,7.40
2019-04-21T05:10:41.623Z,7.40
2019-04-21T05:12:56.950Z,7.50
2019-04-21T05:15:23.695Z,7.60
2019-04-21T05:17:59.183Z,7.70
2019-04-21T05:20:41.807Z,7.90
2019-04-21T05:22:53.290Z,8.00
2019-04-21T05:25:15.196Z,8.20
2019-04-21T05:27:47.216Z,8.20
2019-04-21T05:30:28.483Z,8.30
2019-04-21T05:33:10.879Z,8.30
2019-04-21T05:35:45.167Z,8.50
2019-04-21T05:38:22.355Z,8.50
2019-04-21T05:40:51.211Z,8.60
2019-04-21T05:43:28.427Z,8.70
2019-04-21T05:45:58.105Z,8.70
2019-04-21T05:50:59.150Z,8.90
2019-04-21T05:56:08.830Z,9.10
2019-04-21T05:58:31.693Z,9.20
2019-04-21T06:01:30.184Z,9.30
2019-04-21T06:03:47.656Z,9.50
2019-04-21T06:06:13.609Z,9.70
2019-04-21T06:08:37.328Z,9.80
2019-04-21T06:11:08.538Z,9.80
2019-04-21T06:13:42.893Z,10.00
2019-04-21T06:16:10.240Z,10.20
2019-04-21T06:18:48.928Z,10.30
2019-04-21T06:21:23.544Z,10.40
2019-04-21T06:23:53.837Z,10.60
2019-04-21T06:28:40.209Z,10.80
2019-04-21T06:31:12.451Z,10.90
2019-04-21T06:33:41.728Z,11.00
2019-04-21T06:44:01.487Z,11.60
2019-04-21T06:46:34.909Z,11.80
2019-04-21T06:49:00.302Z,12.00
2019-04-21T06:56:36.525Z,12.70
2019-04-21T06:59:01.308Z,12.90
2019-04-21T07:01:34.554Z,13.00
2019-04-21T07:04:08.385Z,13.10
2019-04-21T07:06:37.275Z,13.40
2019-04-21T07:09:10.221Z,13.60
2019-04-21T07:11:28.739Z,13.90
2019-04-21T07:14:22.567Z,14.10
2019-04-21T07:16:37.371Z,14.30
2019-04-21T07:19:09.820Z,14.50
2019-04-21T07:21:33.835Z,14.70
2019-04-21T07:24:05.799Z,14.90
2019-04-21T07:26:32.718Z,15.20
2019-04-21T07:29:07.851Z,15.40
2019-04-21T07:31:39.884Z,15.60
2019-04-21T07:34:21.407Z,15.70
2019-04-21T07:36:39.562Z,15.80
2019-04-21T07:39:00.226Z,16.00
2019-04-21T07:41:27.025Z,16.10
2019-04-21T07:43:55.991Z,16.30
2019-04-21T07:46:22.575Z,16.40
2019-04-21T07:49:04.557Z,16.50
2019-04-21T07:51:44.028Z,16.60
2019-04-21T07:54:18.356Z,16.70
2019-04-21T07:56:28.750Z,16.80
2019-04-21T07:59:12.725Z,16.90
2019-04-21T08:01:48.411Z,17.10
2019-04-21T08:04:24.619Z,17.10
2019-04-21T08:06:47.859Z,17.30
2019-04-21T08:09:12.375Z,17.40
2019-04-21T08:11:36.740Z,17.50
2019-04-21T08:14:17.751Z,17.60
2019-04-21T08:16:45.074Z,17.80
2019-04-21T08:19:12.983Z,18.00
2019-04-21T08:21:55.794Z,17.90
2019-04-21T08:24:15.034Z,18.20
2019-04-21T08:26:42.190Z,18.30
2019-04-21T08:29:18.920Z,18.40
2019-04-21T08:31:56.494Z,18.60
2019-04-21T08:36:44.762Z,19.00
2019-04-21T08:39:14.067Z,19.20
2019-04-21T08:41:45.169Z,19.40
2019-04-21T08:44:23.805Z,19.60
2019-04-21T08:46:50.776Z,19.60
2019-04-21T08:49:15.012Z,19.70
2019-04-21T08:51:49.696Z,19.90
2019-04-21T08:54:23.612Z,19.60
2019-04-21T08:57:01.469Z,19.80
2019-04-21T08:59:48.048Z,20.20
2019-04-21T09:02:23.634Z,20.30
2019-04-21T09:04:52.796Z,20.60
2019-04-21T09:07:25.816Z,20.80
2019-04-21T09:09:52.846Z,20.50
2019-04-21T09:12:22.621Z,20.80
2019-04-21T09:14:58.147Z,21.00
2019-04-21T09:17:14.869Z,20.90
2019-04-21T09:20:13.623Z,20.60
2019-04-21T09:22:28.683Z,21.10
2019-04-21T09:24:51.846Z,21.20
2019-04-21T09:27:23.226Z,21.60
2019-04-21T09:29:39.300Z,22.20
2019-04-21T09:32:12.346Z,22.10
2019-04-21T09:34:41.685Z,22.30
2019-04-21T09:37:19.177Z,22.70
2019-04-21T09:39:40.940Z,23.20
2019-04-21T09:42:06.611Z,23.60
2019-04-21T09:44:40.314Z,23.80
2019-04-21T09:47:07.435Z,23.90
2019-04-21T09:49:37.599Z,24.70
2019-04-21T09:52:12.984Z,25.10
2019-04-21T09:54:51.014Z,25.90
2019-04-21T09:57:14.490Z,26.10
2019-04-21T09:59:40.074Z,25.40
2019-04-21T10:02:14.212Z,25.70
2019-04-21T10:04:38.017Z,26.30
2019-04-21T10:07:06.906Z,26.20
2019-04-21T10:09:35.633Z,26.40
2019-04-21T10:12:05.277Z,26.80
2019-04-21T10:14:33.821Z,26.10
2019-04-21T10:17:21.887Z,26.70
2019-04-21T10:19:50.684Z,27.40
2019-04-21T10:22:19.250Z,27.50
2019-04-21T10:24:48.824Z,27.80
2019-04-21T10:27:17.523Z,28.10
2019-04-21T10:29:47.194Z,28.30
2019-04-21T10:32:18.641Z,28.40
2019-04-21T10:34:47.511Z,27.90
2019-04-21T10:37:16.695Z,26.40
2019-04-21T10:39:45.406Z,27.60
2019-04-21T10:42:15.378Z,28.80
2019-04-21T10:44:45.116Z,29.30
2019-04-21T10:47:14.464Z,29.00
2019-04-21T10:49:44.562Z,29.40
2019-04-21T10:52:19.268Z,29.90
2019-04-21T10:55:08.317Z,30.30
2019-04-21T10:57:32.560Z,30.70
2019-04-21T11:00:01.510Z,30.90
2019-04-21T11:02:37.129Z,29.80
2019-04-21T11:05:07.100Z,30.80
2019-04-21T11:08:08.092Z,30.60
2019-04-21T11:10:22.382Z,31.20
2019-04-21T11:12:50.905Z,30.40
2019-04-21T11:15:19.503Z,30.20
2019-04-21T11:17:48.868Z,30.50
2019-04-21T11:20:19.214Z,31.00
2019-04-21T11:22:49.339Z,32.00
2019-04-21T11:25:18.016Z,31.50
2019-04-21T11:27:47.039Z,30.50
2019-04-21T11:30:15.902Z,30.20
2019-04-21T11:32:46.347Z,29.40
2019-04-21T11:35:15.209Z,29.80
2019-04-21T11:37:44.070Z,29.60
2019-04-21T11:40:16.284Z,30.00
2019-04-21T11:42:44.105Z,29.20
2019-04-21T11:45:32.668Z,28.70
2019-04-21T11:48:10.377Z,28.90
2019-04-21T11:50:39.237Z,30.00
2019-04-21T11:53:08.413Z,31.00
2019-04-21T11:55:41.093Z,28.50
2019-04-21T11:58:07.761Z,27.00
2019-04-21T12:00:37.732Z,27.60
2019-04-21T12:03:06.412Z,26.80
2019-04-21T12:05:35.228Z,26.80
2019-04-21T12:08:04.077Z,27.30
2019-04-21T12:10:33.380Z,28.40
2019-04-21T12:13:06.158Z,29.30
2019-04-21T12:15:34.841Z,27.40
2019-04-21T12:18:03.857Z,27.30
2019-04-21T12:20:33.489Z,26.90
2019-04-21T12:23:02.490Z,28.00
2019-04-21T12:25:51.425Z,28.10
2019-04-21T12:28:21.766Z,27.80
2019-04-21T12:30:52.051Z,26.60
2019-04-21T12:33:38.203Z,26.30
2019-04-21T12:36:07.179Z,27.50
2019-04-21T12:38:44.749Z,28.10
2019-04-21T12:41:06.618Z,26.80
2019-04-21T12:43:35.236Z,26.90
2019-04-21T12:46:04.190Z,27.60
2019-04-21T12:48:33.812Z,27.40
2019-04-21T12:51:03.763Z,26.90
2019-04-21T12:53:33.839Z,26.70
2019-04-21T12:56:02.515Z,27.90
2019-04-21T12:58:31.157Z,29.00
2019-04-21T13:01:00.950Z,29.10
2019-04-21T13:03:30.411Z,28.40
2019-04-21T13:05:59.124Z,29.60
2019-04-21T13:08:27.625Z,29.70
2019-04-21T13:10:56.277Z,29.90
2019-04-21T13:13:25.987Z,29.30
2019-04-21T13:15:55.739Z,29.60
2019-04-21T13:18:24.395Z,29.40
2019-04-21T13:20:54.066Z,29.40
2019-04-21T13:23:23.101Z,30.80
2019-04-21T13:25:51.978Z,32.80
2019-04-21T13:28:20.749Z,34.70
2019-04-21T13:30:50.682Z,34.60
2019-04-21T13:33:19.273Z,34.40
2019-04-21T13:35:48.836Z,35.30
2019-04-21T13:38:27.001Z,35.60
2019-04-21T13:41:07.405Z,34.20
2019-04-21T13:43:20.953Z,35.40
2019-04-21T13:45:49.968Z,35.00
2019-04-21T13:48:18.889Z,33.30
2019-04-21T13:50:48.991Z,33.30
2019-04-21T13:53:18.590Z,34.40
2019-04-21T13:55:48.571Z,34.50
2019-04-21T13:58:17.149Z,33.90
2019-04-21T14:00:45.778Z,31.80
2019-04-21T14:03:14.593Z,32.30
2019-04-21T14:05:44.491Z,33.30
2019-04-21T14:08:15.869Z,33.10
2019-04-21T14:10:44.369Z,32.00
2019-04-21T14:13:14.224Z,32.80
2019-04-21T14:15:45.251Z,34.20
2019-04-21T14:18:13.160Z,31.70
2019-04-21T14:20:42.870Z,33.00
2019-04-21T14:23:21.074Z,33.10
2019-04-21T14:25:41.763Z,32.40
2019-04-21T14:28:10.318Z,33.80
2019-04-21T14:30:38.904Z,33.30
2019-04-21T14:33:07.935Z,33.90
2019-04-21T14:35:36.747Z,35.00
2019-04-21T14:38:06.842Z,33.90
2019-04-21T14:40:37.055Z,34.30
2019-04-21T14:43:05.958Z,36.20
2019-04-21T14:45:38.912Z,36.50
2019-04-21T14:48:25.373Z,34.90
2019-04-21T14:51:09.249Z,34.60
2019-04-21T14:53:57.244Z,35.20
2019-04-21T14:56:27.129Z,33.10
2019-04-21T14:58:57.676Z,33.00
2019-04-21T15:01:26.236Z,33.90
2019-04-21T15:03:55.502Z,33.80
2019-04-21T15:06:25.347Z,35.20
2019-04-21T15:08:55.415Z,35.10
2019-04-21T15:11:24.249Z,36.40
2019-04-21T15:13:53.618Z,37.10
2019-04-21T15:16:22.838Z,36.80
2019-04-21T15:18:52.668Z,35.10
2019-04-21T15:21:21.654Z,34.20
2019-04-21T15:23:50.692Z,33.20
2019-04-21T15:26:20.051Z,34.10
2019-04-21T15:28:48.955Z,34.00
2019-04-21T15:31:25.710Z,33.80
2019-04-21T15:33:47.783Z,32.20
2019-04-21T15:36:16.748Z,30.80
2019-04-21T15:38:45.815Z,30.40
2019-04-21T15:41:14.632Z,30.50
2019-04-21T15:43:43.110Z,29.90
2019-04-21T15:46:12.899Z,28.70
2019-04-21T15:48:41.633Z,27.90
2019-04-21T15:51:11.145Z,27.40
2019-04-21T15:53:41.820Z,27.30
2019-04-21T15:56:15.306Z,27.40
2019-04-21T15:59:01.541Z,27.40
2019-04-21T16:01:32.485Z,27.80
2019-04-21T16:04:02.804Z,27.50
2019-04-21T16:06:31.928Z,27.40
2019-04-21T16:09:01.367Z,27.70
2019-04-21T16:11:31.595Z,27.50
2019-04-21T16:14:01.736Z,27.20
2019-04-21T16:16:31.984Z,26.70
2019-04-21T16:19:00.666Z,26.90
2019-04-21T16:21:29.560Z,26.80
2019-04-21T16:23:58.294Z,25.90
2019-04-21T16:26:28.791Z,25.40
2019-04-21T16:28:57.502Z,25.00
2019-04-21T16:31:26.032Z,24.80
2019-04-21T16:33:54.780Z,24.40
2019-04-21T16:36:25.480Z,24.10
2019-04-21T16:38:55.517Z,24.00
2019-04-21T16:41:26.405Z,23.80
2019-04-21T16:43:55.389Z,23.60
2019-04-21T16:46:25.210Z,23.50
2019-04-21T16:48:53.888Z,23.40
2019-04-21T16:51:22.354Z,23.30
2019-04-21T16:53:52.484Z,23.20
2019-04-21T16:56:37.472Z,23.10
2019-04-21T16:59:08.555Z,22.90
2019-04-21T17:01:38.423Z,22.70
2019-04-21T17:04:08.372Z,22.70
2019-04-21T17:06:38.316Z,22.70
2019-04-21T17:09:08.482Z,22.60
2019-04-21T17:11:39.225Z,22.50
2019-04-21T17:14:24.712Z,22.30
2019-04-21T17:17:03.241Z,22.30
2019-04-21T17:19:15.915Z,22.20
2019-04-21T17:21:39.484Z,22.20
2019-04-21T17:24:08.386Z,22.10
2019-04-21T17:26:39.405Z,22.00
2019-04-21T17:29:07.278Z,21.90
2019-04-21T17:31:37.081Z,21.80
2019-04-21T17:34:10.288Z,21.70
2019-04-21T17:36:37.132Z,21.60
2019-04-21T17:39:06.933Z,21.50
2019-04-21T17:41:55.075Z,21.40
2019-04-21T17:44:11.617Z,21.40
2019-04-21T17:46:46.615Z,21.40
2019-04-21T17:49:12.817Z,21.30
2019-04-21T17:52:03.942Z,21.50
2019-04-21T17:54:37.654Z,21.50
2019-04-21T17:57:26.513Z,21.50
2019-04-21T18:02:24.716Z,21.50
2019-04-21T18:04:58.447Z,21.40
2019-04-21T18:07:27.469Z,21.50
2019-04-21T18:12:31.827Z,21.10
2019-04-21T18:14:54.121Z,21.10
2019-04-21T18:17:14.168Z,21.40
2019-04-21T18:19:45.772Z,21.30
2019-04-21T18:22:34.722Z,21.20
2019-04-21T18:25:06.749Z,21.30
2019-04-21T18:27:32.341Z,21.20
2019-04-21T18:30:04.424Z,21.30
2019-04-21T18:32:37.471Z,21.40
2019-04-21T18:35:13.492Z,21.30
2019-04-21T18:37:51.616Z,21.10
2019-04-21T18:40:25.598Z,20.90
2019-04-21T18:43:27.380Z,21.10
2019-04-21T18:48:21.973Z,20.80
2019-04-21T18:50:55.350Z,20.80
2019-04-21T18:53:37.891Z,20.70
2019-04-21T18:55:56.214Z,20.20
2019-04-21T18:58:20.132Z,20.20
2019-04-21T19:00:51.090Z,19.80
2019-04-21T19:03:25.351Z,19.60
2019-04-21T19:05:54.398Z,19.50
2019-04-21T19:08:39.957Z,19.30
2019-04-21T19:11:08.817Z,19.20
2019-04-21T19:13:59.886Z,19.00
2019-04-21T19:16:31.332Z,18.70
2019-04-21T19:19:21.257Z,18.50
2019-04-21T19:21:08.655Z,18.30
2019-04-21T19:26:26.269Z,18.20
2019-04-21T19:28:46.944Z,18.00
2019-04-21T19:31:20.905Z,17.70
2019-04-21T19:33:36.462Z,17.50
2019-04-21T19:35:57.291Z,17.40
2019-04-21T19:38:35.015Z,17.40
2019-04-21T19:41:11.424Z,17.40
2019-04-21T19:43:49.292Z,17.50
2019-04-21T19:46:14.106Z,17.60
2019-04-21T19:48:54.105Z,17.30
2019-04-21T19:51:10.600Z,17.10
2019-04-21T19:53:41.597Z,17.00
2019-04-21T19:55:58.313Z,16.90
2019-04-21T19:58:32.955Z,16.70
2019-04-21T20:00:57.592Z,16.40
2019-04-21T20:03:26.410Z,16.40
2019-04-21T20:06:06.200Z,16.20
2019-04-21T20:08:41.732Z,16.00
2019-04-21T20:11:18.267Z,16.00
2019-04-21T20:14:18.364Z,15.70
2019-04-21T20:16:12.896Z,15.60
2019-04-21T20:18:34.858Z,15.60
2019-04-21T20:20:56.402Z,15.60
2019-04-21T20:23:30.101Z,15.60
2019-04-21T20:26:00.732Z,15.50
2019-04-21T20:28:38.490Z,15.50
2019-04-21T20:31:14.899Z,15.50
2019-04-21T20:33:53.859Z,15.30
2019-04-21T20:36:16.945Z,15.40
2019-04-21T20:38:35.944Z,15.20
2019-04-21T20:41:01.814Z,15.10
2019-04-21T20:43:45.659Z,15.10
2019-04-21T20:46:12.326Z,15.00
2019-04-21T20:48:42.878Z,15.00
2019-04-21T20:51:14.928Z,14.90
2019-04-21T20:53:41.536Z,14.80
2019-04-21T20:56:07.235Z,14.70
2019-04-21T20:58:45.205Z,14.60
2019-04-21T21:01:33.101Z,14.60
2019-04-21T21:03:46.070Z,14.40
2019-04-21T21:06:14.405Z,14.40
2019-04-21T21:08:46.773Z,14.40
2019-04-21T21:11:21.467Z,14.30
2019-04-21T21:13:50.689Z,14.20
2019-04-21T21:16:44.951Z,14.20
2019-04-21T21:21:15.608Z,14.00
2019-04-21T21:23:48.034Z,13.80
2019-04-21T21:26:21.901Z,13.70
2019-04-21T21:28:43.287Z,13.60
2019-04-21T21:31:24.563Z,13.50
2019-04-21T21:33:59.256Z,13.40
2019-04-21T21:36:19.575Z,13.40
2019-04-21T21:38:54.642Z,13.50
2019-04-21T21:41:15.615Z,13.40
2019-04-21T21:43:34.544Z,13.30
2019-04-21T21:46:15.319Z,13.30
2019-04-21T21:48:45.132Z,13.10
2019-04-21T21:51:13.054Z,13.00
2019-04-21T21:53:36.245Z,13.00
2019-04-21T21:56:04.777Z,13.00
2019-04-21T21:58:38.720Z,12.90
2019-04-21T22:01:06.812Z,12.80
2019-04-21T22:03:40.893Z,12.80
2019-04-21T22:06:10.791Z,12.70
2019-04-21T22:08:36.399Z,12.70
2019-04-21T22:11:05.501Z,12.70
2019-04-21T22:13:43.651Z,12.60
2019-04-21T22:16:10.627Z,12.60
2019-04-21T22:18:58.535Z,12.60
2019-04-21T22:21:21.608Z,12.50
2019-04-21T22:23:43.755Z,12.50
2019-04-21T22:26:05.547Z,12.50
2019-04-21T22:28:34.225Z,12.50
2019-04-21T22:31:05.583Z,12.50
2019-04-21T22:33:42.978Z,12.50
2019-04-21T22:36:18.240Z,12.50
2019-04-21T22:38:47.615Z,12.50
2019-04-21T22:41:14.404Z,12.50
2019-04-21T22:43:38.336Z,12.40
2019-04-21T22:46:05.251Z,12.50
2019-04-21T22:48:34.747Z,12.40
2019-04-21T22:51:07.148Z,12.40
2019-04-21T22:53:36.176Z,12.30
2019-04-21T22:56:12.501Z,12.40
2019-04-21T22:58:39.383Z,12.30
2019-04-21T23:01:06.138Z,12.20
2019-04-21T23:03:40.108Z,12.20
2019-04-21T23:06:13.562Z,12.20
2019-04-21T23:08:40.518Z,12.20
2019-04-21T23:11:10.921Z,12.20
2019-04-21T23:13:38.695Z,12.10
2019-04-21T23:16:08.475Z,12.10
2019-04-21T23:18:52.961Z,12.00
2019-04-21T23:21:21.188Z,11.90
2019-04-21T23:23:57.706Z,11.80
2019-04-21T23:26:29.700Z,11.80
2019-04-21T23:28:58.566Z,11.80
2019-04-21T23:31:29.176Z,11.70
2019-04-21T23:33:40.068Z,11.60
2019-04-21T23:36:15.664Z,11.60
2019-04-21T23:38:44.134Z,11.70
2019-04-21T23:41:11.230Z,11.70
2019-04-21T23:43:40.522Z,11.70
2019-04-21T23:46:18.871Z,11.70
2019-04-21T23:48:57.881Z,11.70
2019-04-21T23:51:21.414Z,11.70
2019-04-21T23:53:39.713Z,11.70
2019-04-21T23:56:08.427Z,11.60
2019-04-21T23:58:38.855Z,11.50
